createdAt,value
2019-04-25T00:01:03.308Z,81.80
2019-04-25T00:05:11.247Z,81.10
2019-04-25T00:09:18.868Z,80.20
2019-04-25T00:13:24.047Z,81.30
2019-04-25T00:17:31.804Z,81.90
2019-04-25T00:21:59.138Z,81.50
2019-04-25T00:26:11.320Z,80.90
2019-04-25T00:30:18.343Z,80.90
2019-04-25T00:34:23.244Z,82.30
2019-04-25T00:38:31.868Z,83.30
2019-04-25T00:42:36.678Z,82.70
2019-04-25T00:46:43.287Z,82.70
2019-04-25T00:50:48.055Z,84.40
2019-04-25T00:54:53.526Z,86.30
2019-04-25T00:59:25.496Z,86.20
2019-04-25T01:03:31.761Z,87.20
2019-04-25T01:07:36.716Z,87.90
2019-04-25T01:11:42.438Z,88.30
2019-04-25T01:15:47.254Z,89.10
2019-04-25T01:19:52.007Z,90.20
2019-04-25T01:23:56.809Z,90.50
2019-04-25T01:28:03.158Z,90.30
2019-04-25T01:32:09.743Z,90.40
2019-04-25T01:36:33.249Z,91.00
2019-04-25T01:40:59.880Z,90.50
2019-04-25T01:45:05.605Z,91.10
2019-04-25T01:49:10.517Z,91.20
2019-04-25T01:53:15.525Z,91.40
2019-04-25T01:57:20.570Z,91.70
2019-04-25T02:01:25.374Z,91.80
2019-04-25T02:05:30.100Z,91.90
2019-04-25T02:09:34.823Z,92.10
2019-04-25T02:13:40.454Z,91.20
2019-04-25T02:17:45.498Z,90.80
2019-04-25T02:21:51.407Z,91.00
2019-04-25T02:26:09.606Z,91.70
2019-04-25T02:30:06.967Z,92.00
2019-04-25T02:34:10.861Z,91.90
2019-04-25T02:38:17.068Z,91.80
2019-04-25T02:42:24.404Z,91.90
2019-04-25T02:46:47.963Z,91.60
2019-04-25T02:51:01.244Z,92.40
2019-04-25T02:55:10.560Z,92.30
2019-04-25T02:59:14.905Z,92.70
2019-04-25T03:03:19.678Z,92.70
2019-04-25T03:07:24.867Z,93.10
2019-04-25T03:11:30.436Z,93.30
2019-04-25T03:15:36.509Z,93.50
2019-04-25T03:20:11.665Z,93.80
2019-04-25T03:24:16.964Z,93.40
2019-04-25T03:28:23.875Z,93.20
2019-04-25T03:32:28.707Z,93.10
2019-04-25T03:36:33.830Z,93.50
2019-04-25T03:40:38.507Z,92.50
2019-04-25T03:44:43.817Z,91.60
2019-04-25T03:48:49.559Z,91.00
2019-04-25T03:52:54.639Z,90.90
2019-04-25T03:56:59.342Z,90.90
2019-04-25T04:01:06.910Z,91.00
2019-04-25T04:05:11.464Z,91.20
2019-04-25T04:09:16.586Z,91.20
2019-04-25T04:13:21.199Z,91.50
2019-04-25T04:17:50.979Z,91.70
2019-04-25T04:22:11.232Z,91.60
2019-04-25T04:26:16.108Z,91.70
2019-04-25T04:30:21.650Z,91.70
2019-04-25T04:34:26.252Z,91.70
2019-04-25T04:38:30.862Z,91.40
2019-04-25T04:42:35.486Z,91.70
2019-04-25T04:46:40.472Z,92.00
2019-04-25T04:50:45.405Z,92.30
2019-04-25T04:54:50.021Z,92.70
2019-04-25T04:58:54.926Z,92.50
2019-04-25T05:03:07.051Z,93.10
2019-04-25T05:07:30.825Z,92.60
2019-04-25T05:11:35.448Z,92.80
2019-04-25T05:15:40.084Z,92.70
2019-04-25T05:19:44.674Z,92.20
2019-04-25T05:23:49.302Z,92.00
2019-04-25T05:28:02.099Z,91.90
2019-04-25T05:32:00.979Z,92.10
2019-04-25T05:36:05.933Z,92.10
2019-04-25T05:40:11.184Z,91.90
2019-04-25T05:44:16.986Z,91.80
2019-04-25T05:48:21.686Z,91.90
2019-04-25T05:52:26.311Z,91.40
2019-04-25T05:56:30.983Z,90.90
2019-04-25T06:00:35.719Z,90.50
2019-04-25T06:04:40.532Z,90.10
2019-04-25T06:08:51.838Z,90.20
2019-04-25T06:13:28.668Z,89.10
2019-04-25T06:17:53.373Z,89.10
2019-04-25T06:21:58.638Z,85.50
2019-04-25T06:26:17.179Z,84.90
2019-04-25T06:30:18.542Z,83.80
2019-04-25T06:34:25.399Z,82.60
2019-04-25T06:38:29.593Z,80.80
2019-04-25T06:42:34.993Z,79.80
2019-04-25T06:46:49.773Z,79.50
2019-04-25T06:50:54.578Z,78.90
2019-04-25T06:54:59.514Z,78.30
2019-04-25T06:59:04.183Z,77.00
2019-04-25T07:03:08.791Z,70.10
2019-04-25T07:07:14.930Z,64.70
2019-04-25T07:11:19.819Z,56.90
2019-04-25T07:15:26.753Z,54.80
2019-04-25T07:19:32.059Z,56.80
2019-04-25T07:23:36.740Z,57.10
2019-04-25T07:27:53.517Z,51.50
2019-04-25T07:32:20.706Z,48.10
2019-04-25T07:36:25.790Z,50.40
2019-04-25T07:40:31.758Z,44.80
2019-04-25T07:44:49.445Z,41.50
2019-04-25T07:48:43.809Z,39.00
2019-04-25T07:52:53.871Z,38.90
2019-04-25T07:56:58.566Z,35.50
2019-04-25T08:01:05.327Z,37.30
2019-04-25T08:05:11.015Z,35.10
2019-04-25T08:09:16.162Z,31.00
2019-04-25T08:13:23.353Z,30.40
2019-04-25T08:17:46.205Z,29.50
2019-04-25T08:21:51.074Z,27.40
2019-04-25T08:25:55.694Z,28.30
2019-04-25T08:30:00.379Z,27.80
2019-04-25T08:34:05.009Z,25.40
2019-04-25T08:38:09.791Z,27.30
2019-04-25T08:42:15.369Z,28.80
2019-04-25T08:46:20.148Z,27.80
2019-04-25T08:50:37.174Z,27.50
2019-04-25T08:54:51.989Z,28.10
2019-04-25T08:59:15.788Z,30.70
2019-04-25T09:03:24.197Z,28.50
2019-04-25T09:07:28.930Z,34.20
2019-04-25T09:11:36.391Z,31.30
2019-04-25T09:15:40.020Z,30.40
2019-04-25T09:19:46.205Z,29.90
2019-04-25T09:23:51.135Z,29.50
2019-04-25T09:27:58.052Z,28.10
2019-04-25T09:32:03.729Z,29.70
2019-04-25T09:36:08.654Z,30.50
2019-04-25T09:40:14.755Z,29.20
2019-04-25T09:44:24.198Z,32.60
2019-04-25T09:48:46.808Z,33.80
2019-04-25T09:52:51.492Z,33.40
2019-04-25T09:56:59.961Z,37.10
2019-04-25T10:01:10.191Z,39.10
2019-04-25T10:05:19.070Z,41.20
2019-04-25T10:09:24.579Z,36.20
2019-04-25T10:13:29.943Z,37.50
2019-04-25T10:17:49.292Z,34.00
2019-04-25T10:21:55.279Z,30.90
2019-04-25T10:26:01.458Z,27.10
2019-04-25T10:30:16.811Z,30.90
2019-04-25T10:34:14.100Z,30.00
2019-04-25T10:38:19.232Z,32.50
2019-04-25T10:42:29.213Z,33.90
2019-04-25T10:46:30.359Z,31.90
2019-04-25T10:50:35.097Z,31.60
2019-04-25T10:54:39.908Z,32.30
2019-04-25T10:58:46.737Z,35.10
2019-04-25T11:02:52.356Z,34.40
2019-04-25T11:06:58.490Z,35.00
2019-04-25T11:11:03.745Z,31.60
2019-04-25T11:15:11.390Z,30.90
2019-04-25T11:19:15.436Z,28.40
2019-04-25T11:23:20.174Z,22.60
2019-04-25T11:27:25.419Z,23.10
2019-04-25T11:31:34.718Z,24.80
2019-04-25T11:35:39.356Z,24.30
2019-04-25T11:39:56.023Z,24.80
2019-04-25T11:44:03.313Z,23.70
2019-04-25T11:48:09.060Z,24.10
2019-04-25T11:52:21.418Z,22.80
2019-04-25T11:56:20.279Z,23.90
2019-04-25T12:00:27.621Z,21.30
2019-04-25T12:04:33.229Z,21.80
2019-04-25T12:08:38.242Z,22.30
2019-04-25T12:12:46.288Z,20.40
2019-04-25T12:16:51.515Z,19.40
2019-04-25T12:20:57.956Z,19.30
2019-04-25T12:25:01.958Z,20.20
2019-04-25T12:29:07.403Z,21.60
2019-04-25T12:33:20.350Z,23.00
2019-04-25T12:37:18.709Z,20.00
2019-04-25T12:41:23.691Z,23.90
2019-04-25T12:45:37.375Z,19.40
2019-04-25T12:49:43.718Z,21.30
2019-04-25T12:53:49.743Z,19.10
2019-04-25T12:57:55.500Z,19.00
2019-04-25T13:02:01.105Z,21.60
2019-04-25T13:06:07.126Z,21.30
2019-04-25T13:10:13.433Z,20.90
2019-04-25T13:14:18.491Z,21.60
2019-04-25T13:18:23.117Z,19.60
2019-04-25T13:22:27.848Z,18.40
2019-04-25T13:26:37.450Z,19.30
2019-04-25T13:31:04.146Z,22.10
2019-04-25T13:35:04.814Z,19.80
2019-04-25T13:39:18.538Z,20.50
2019-04-25T13:43:23.134Z,21.00
2019-04-25T13:47:29.392Z,19.40
2019-04-25T13:51:35.649Z,21.80
2019-04-25T13:55:40.730Z,21.40
2019-04-25T13:59:45.864Z,21.70
2019-04-25T14:03:51.143Z,21.40
2019-04-25T14:07:56.022Z,20.40
2019-04-25T14:12:00.888Z,22.30
2019-04-25T14:16:26.765Z,22.10
2019-04-25T14:20:35.192Z,23.70
2019-04-25T14:24:40.243Z,23.40
2019-04-25T14:28:44.980Z,20.50
2019-04-25T14:32:49.826Z,20.50
2019-04-25T14:36:54.436Z,21.40
2019-04-25T14:41:00.268Z,23.00
2019-04-25T14:45:05.851Z,22.50
2019-04-25T14:49:10.774Z,23.30
2019-04-25T14:53:15.546Z,23.80
2019-04-25T14:57:27.215Z,22.30
2019-04-25T15:01:44.056Z,24.50
2019-04-25T15:05:41.074Z,23.20
2019-04-25T15:09:44.764Z,23.00
2019-04-25T15:13:49.362Z,23.00
2019-04-25T15:17:54.050Z,23.40
2019-04-25T15:21:59.023Z,23.20
2019-04-25T15:26:03.887Z,24.00
2019-04-25T15:30:10.784Z,23.90
2019-04-25T15:34:16.070Z,23.60
2019-04-25T15:38:25.546Z,25.10
2019-04-25T15:42:46.021Z,25.20
2019-04-25T15:46:52.150Z,24.00
2019-04-25T15:50:57.140Z,24.00
2019-04-25T15:55:07.528Z,24.30
2019-04-25T15:59:08.186Z,24.70
2019-04-25T16:03:13.472Z,24.20
2019-04-25T16:07:18.666Z,24.20
2019-04-25T16:11:23.599Z,25.50
2019-04-25T16:15:29.080Z,26.70
2019-04-25T16:19:34.753Z,26.70
2019-04-25T16:23:39.526Z,26.60
2019-04-25T16:27:44.501Z,26.90
2019-04-25T16:31:49.095Z,27.70
2019-04-25T16:35:53.739Z,26.00
2019-04-25T16:39:58.428Z,27.30
2019-04-25T16:44:07.629Z,28.30
2019-04-25T16:48:12.498Z,27.40
2019-04-25T16:52:17.761Z,26.80
2019-04-25T16:56:22.470Z,26.50
2019-04-25T17:00:44.804Z,27.70
2019-04-25T17:04:51.099Z,28.90
2019-04-25T17:08:55.789Z,29.30
2019-04-25T17:13:00.415Z,31.60
2019-04-25T17:17:36.206Z,29.20
2019-04-25T17:21:41.256Z,31.50
2019-04-25T17:25:45.931Z,31.50
2019-04-25T17:29:50.702Z,31.30
2019-04-25T17:34:26.575Z,32.80
2019-04-25T17:38:37.766Z,32.50
2019-04-25T17:42:42.352Z,34.00
2019-04-25T17:46:46.936Z,35.00
2019-04-25T17:50:51.595Z,35.70
2019-04-25T17:54:57.526Z,37.00
2019-04-25T17:59:03.166Z,37.20
2019-04-25T18:03:10.924Z,35.80
2019-04-25T18:07:15.717Z,37.40
2019-04-25T18:11:20.318Z,35.30
2019-04-25T18:15:31.546Z,37.80
2019-04-25T18:19:40.548Z,39.50
2019-04-25T18:24:00.092Z,36.70
2019-04-25T18:28:12.636Z,38.60
2019-04-25T18:32:17.408Z,37.80
2019-04-25T18:36:30.743Z,37.60
2019-04-25T18:41:04.056Z,36.80
2019-04-25T18:45:10.552Z,37.30
2019-04-25T18:49:15.583Z,40.50
2019-04-25T18:53:47.359Z,41.90
2019-04-25T18:57:58.810Z,38.80
2019-04-25T19:02:21.510Z,43.30
2019-04-25T19:06:26.871Z,39.70
2019-04-25T19:10:31.496Z,41.00
2019-04-25T19:14:36.183Z,40.40
2019-04-25T19:18:41.190Z,39.50
2019-04-25T19:22:47.115Z,39.80
2019-04-25T19:26:52.302Z,41.90
2019-04-25T19:30:57.080Z,41.00
2019-04-25T19:35:01.779Z,38.80
2019-04-25T19:39:07.534Z,41.50
2019-04-25T19:43:16.976Z,38.50
2019-04-25T19:47:21.623Z,38.60
2019-04-25T19:51:26.654Z,39.10
2019-04-25T19:55:32.056Z,39.20
2019-04-25T19:59:36.663Z,38.40
2019-04-25T20:03:52.224Z,41.90
2019-04-25T20:07:58.587Z,40.10
2019-04-25T20:12:03.803Z,38.30
2019-04-25T20:16:08.582Z,38.00
2019-04-25T20:20:14.830Z,38.60
2019-04-25T20:24:19.664Z,38.40
2019-04-25T20:28:24.531Z,39.20
2019-04-25T20:32:29.297Z,40.00
2019-04-25T20:36:34.115Z,40.30
2019-04-25T20:40:39.116Z,40.00
2019-04-25T20:44:43.979Z,38.20
2019-04-25T20:48:48.821Z,37.80
2019-04-25T20:52:53.795Z,37.90
2019-04-25T20:56:59.428Z,38.30
2019-04-25T21:01:05.159Z,39.10
2019-04-25T21:05:10.059Z,39.60
2019-04-25T21:09:14.930Z,40.90
2019-04-25T21:13:30.758Z,40.00
2019-04-25T21:17:50.962Z,40.30
2019-04-25T21:21:58.710Z,40.30
2019-04-25T21:26:03.323Z,40.80
2019-04-25T21:30:09.655Z,41.80
2019-04-25T21:34:25.348Z,41.60
2019-04-25T21:38:20.710Z,41.60
2019-04-25T21:42:29.231Z,42.50
2019-04-25T21:46:34.835Z,41.80
2019-04-25T21:50:39.804Z,41.80
2019-04-25T21:54:44.996Z,42.80
2019-04-25T21:58:49.858Z,42.50
2019-04-25T22:02:57.916Z,42.50
2019-04-25T22:07:03.065Z,42.20
2019-04-25T22:11:08.058Z,42.50
2019-04-25T22:15:13.599Z,42.50
2019-04-25T22:19:18.472Z,42.30
2019-04-25T22:23:23.418Z,42.70
2019-04-25T22:27:32.753Z,43.10
2019-04-25T22:31:58.583Z,43.70
2019-04-25T22:36:12.301Z,44.30
2019-04-25T22:40:17.151Z,44.50
2019-04-25T22:44:22.522Z,44.80
2019-04-25T22:48:45.840Z,45.10
2019-04-25T22:52:50.898Z,45.50
2019-04-25T22:56:55.647Z,45.70
2019-04-25T23:01:02.279Z,46.10
2019-04-25T23:05:16.401Z,46.20
2019-04-25T23:09:21.341Z,47.50
2019-04-25T23:13:26.331Z,46.50
2019-04-25T23:17:31.008Z,47.30
2019-04-25T23:21:36.602Z,47.80
2019-04-25T23:25:59.017Z,48.50
2019-04-25T23:30:05.709Z,48.60
2019-04-25T23:34:12.830Z,49.60
2019-04-25T23:38:17.562Z,49.60
2019-04-25T23:42:22.194Z,49.90
2019-04-25T23:46:27.084Z,50.20
2019-04-25T23:50:31.772Z,50.70
2019-04-25T23:54:36.469Z,51.20
2019-04-25T23:58:41.350Z,52.10
